Hauptseite
METAR-TAF:

METAR-TAF

Flughäfen :

Flughafen Mailand-Malpensa

Mailand, Italien

Breite: 45-37N, Länge: 008-44E, Höhe: 234 m

Beobachtung

Neuester Wetterbericht von vor 24 Minuten, um 09:50 UTC
Wind 5 kt aus Ost, variierte zwischen Ost und Südost
Temperatur 11°C
Luftfeuchtigkeit 62%
Luftdruck 1028 hPa
Sichtweite 10 km oder mehr
Durchbrochene Bewölkung in der Höhe von 4000 ft

METAR: LIMC 160950Z 10005KT 080V140 9999 BKN040 11/04 Q1028 NOSIG

Zeit: 11:14 (10:14 UTC)

Prognose

Neuester Wetterbericht von vor 5 Stunden und 14 Minuten, um 05:00 UTC
Gültige Prognose vom 16 um 06 UTC bis 17 um 12 UTC
Wind 5 kt aus unterschiedlichen Richtungen
Sichtweite: 5000 m
Durchbrochene Bewölkung in der Höhe von 1500 ft
feuchter Dunst
Zeitweise
vom 16 um 06 UTC bis 16 um 08 UTC
Sichtweite: 2000 m

TAF: LIMC 160500Z 1606/1712 VRB05KT 5000 BR BKN015 TEMPO 1606/1608 2000

Wetterbeobachtungen und Prognosen von mehr als 4000 Flughäfen (METAR und TAF Bericht).

Die verfügbaren Stationen werden durch gelbe und rote Markierungen auf der Karte dargestellt.

Führen Sie die Maus auf sie, um den Namen der Station zu sehen.

Darauf klicken, um die Beobachtung von Wetterbeobachtungen und Prognosen zu sehen.

Um die Karte zu ändern : klicken Sie auf den grünen Tasten mit einem schwarzen Kreuz Zum Vergrößern, auf den grünen Button mit einem Gedankenstrich zu verkleinern, oder auf die grünen Pfeile für benachbarte Karten.


METAR-TAF: